sensor_id;sensor_type;location;lat;lon;timestamp;pressure;altitude;pressure_sealevel;temperature;humidity
16613;BME280;8419;52.358;9.752;2023-01-30T00:02:14;100749.00;;;13.96;37.81
16613;BME280;8419;52.358;9.752;2023-01-30T00:05:00;100713.00;;;13.97;37.82
16613;BME280;8419;52.358;9.752;2023-01-30T00:07:47;100700.00;;;13.97;37.85
16613;BME280;8419;52.358;9.752;2023-01-30T00:10:34;100686.00;;;14.03;37.77
16613;BME280;8419;52.358;9.752;2023-01-30T00:13:19;100683.00;;;14.06;37.68
16613;BME280;8419;52.358;9.752;2023-01-30T00:16:06;100678.00;;;14.03;37.75
16613;BME280;8419;52.358;9.752;2023-01-30T00:18:53;100686.00;;;14.06;37.72
16613;BME280;8419;52.358;9.752;2023-01-30T00:21:39;100680.00;;;14.07;37.70
16613;BME280;8419;52.358;9.752;2023-01-30T00:24:25;100680.00;;;14.10;37.64
16613;BME280;8419;52.358;9.752;2023-01-30T00:27:10;100703.00;;;14.08;37.68
16613;BME280;8419;52.358;9.752;2023-01-30T00:29:55;100688.00;;;14.12;37.63
16613;BME280;8419;52.358;9.752;2023-01-30T00:32:41;100705.00;;;14.17;37.53
16613;BME280;8419;52.358;9.752;2023-01-30T00:35:27;100698.00;;;14.15;37.59
16613;BME280;8419;52.358;9.752;2023-01-30T00:38:16;100699.00;;;14.18;37.56
16613;BME280;8419;52.358;9.752;2023-01-30T00:41:02;100693.00;;;14.24;37.48
16613;BME280;8419;52.358;9.752;2023-01-30T00:43:48;100686.00;;;14.23;37.49
16613;BME280;8419;52.358;9.752;2023-01-30T00:46:55;100674.00;;;14.21;37.59
16613;BME280;8419;52.358;9.752;2023-01-30T00:49:50;100670.00;;;14.20;37.65
16613;BME280;8419;52.358;9.752;2023-01-30T00:52:35;100665.00;;;14.17;37.74
16613;BME280;8419;52.358;9.752;2023-01-30T00:55:21;100663.00;;;14.14;37.89
16613;BME280;8419;52.358;9.752;2023-01-30T00:58:06;100651.00;;;14.18;37.84
16613;BME280;8419;52.358;9.752;2023-01-30T01:00:52;100645.00;;;14.23;37.85
16613;BME280;8419;52.358;9.752;2023-01-30T01:03:37;100649.00;;;14.24;37.84
16613;BME280;8419;52.358;9.752;2023-01-30T01:06:30;100641.00;;;14.15;38.15
16613;BME280;8419;52.358;9.752;2023-01-30T01:09:17;100644.00;;;14.05;38.44
16613;BME280;8419;52.358;9.752;2023-01-30T01:12:03;100645.00;;;13.93;38.79
16613;BME280;8419;52.358;9.752;2023-01-30T01:14:49;100637.00;;;13.80;39.18
16613;BME280;8419;52.358;9.752;2023-01-30T01:17:35;100621.00;;;13.75;39.25
16613;BME280;8419;52.358;9.752;2023-01-30T01:20:21;100615.00;;;13.68;39.56
16613;BME280;8419;52.358;9.752;2023-01-30T01:23:09;100593.00;;;13.68;39.57
16613;BME280;8419;52.358;9.752;2023-01-30T01:25:55;100615.00;;;13.68;39.75
16613;BME280;8419;52.358;9.752;2023-01-30T01:28:40;100579.00;;;13.69;39.83
16613;BME280;8419;52.358;9.752;2023-01-30T01:31:25;100595.00;;;13.78;39.75
16613;BME280;8419;52.358;9.752;2023-01-30T01:34:11;100573.00;;;13.75;39.87
16613;BME280;8419;52.358;9.752;2023-01-30T01:36:57;100542.00;;;13.72;40.00
16613;BME280;8419;52.358;9.752;2023-01-30T01:39:43;100544.00;;;13.75;40.15
16613;BME280;8419;52.358;9.752;2023-01-30T01:42:47;100493.00;;;13.78;40.21
16613;BME280;8419;52.358;9.752;2023-01-30T01:45:35;100511.00;;;13.74;40.43
16613;BME280;8419;52.358;9.752;2023-01-30T01:48:26;100503.00;;;13.74;40.67
16613;BME280;8419;52.358;9.752;2023-01-30T01:51:17;100510.00;;;13.75;40.78
16613;BME280;8419;52.358;9.752;2023-01-30T01:54:09;100512.00;;;13.80;40.79
16613;BME280;8419;52.358;9.752;2023-01-30T01:57:02;100501.00;;;13.88;40.68
16613;BME280;8419;52.358;9.752;2023-01-30T01:59:51;100490.00;;;13.92;40.72
16613;BME280;8419;52.358;9.752;2023-01-30T02:02:37;100481.00;;;13.93;40.76
16613;BME280;8419;52.358;9.752;2023-01-30T02:05:26;100496.00;;;14.02;40.66
16613;BME280;8419;52.358;9.752;2023-01-30T02:08:16;100487.00;;;14.09;40.59
16613;BME280;8419;52.358;9.752;2023-01-30T02:11:08;100477.00;;;14.05;40.74
16613;BME280;8419;52.358;9.752;2023-01-30T02:13:54;100478.00;;;14.10;40.81
16613;BME280;8419;52.358;9.752;2023-01-30T02:16:43;100481.00;;;14.21;40.59
16613;BME280;8419;52.358;9.752;2023-01-30T02:19:36;100481.00;;;14.28;40.58
16613;BME280;8419;52.358;9.752;2023-01-30T02:22:42;100465.00;;;14.31;40.64
16613;BME280;8419;52.358;9.752;2023-01-30T02:26:00;100477.00;;;14.39;40.63
16613;BME280;8419;52.358;9.752;2023-01-30T02:29:27;100476.00;;;14.55;40.30
16613;BME280;8419;52.358;9.752;2023-01-30T02:32:24;100458.00;;;14.55;40.37
16613;BME280;8419;52.358;9.752;2023-01-30T02:35:18;100435.00;;;14.51;40.49
16613;BME280;8419;52.358;9.752;2023-01-30T02:38:21;100462.00;;;14.54;40.49
16613;BME280;8419;52.358;9.752;2023-01-30T02:41:18;100453.00;;;14.58;40.44
16613;BME280;8419;52.358;9.752;2023-01-30T02:44:12;100446.00;;;14.57;40.48
16613;BME280;8419;52.358;9.752;2023-01-30T02:47:05;100415.00;;;14.62;40.48
16613;BME280;8419;52.358;9.752;2023-01-30T02:49:54;100424.00;;;14.67;40.37
16613;BME280;8419;52.358;9.752;2023-01-30T02:52:45;100419.00;;;14.72;40.34
16613;BME280;8419;52.358;9.752;2023-01-30T02:55:31;100413.00;;;14.76;40.27
16613;BME280;8419;52.358;9.752;2023-01-30T02:58:18;100405.00;;;14.76;40.29
16613;BME280;8419;52.358;9.752;2023-01-30T03:01:41;100415.00;;;14.80;40.27
16613;BME280;8419;52.358;9.752;2023-01-30T03:04:41;100390.00;;;14.83;40.36
16613;BME280;8419;52.358;9.752;2023-01-30T03:07:43;100389.00;;;14.84;40.33
16613;BME280;8419;52.358;9.752;2023-01-30T03:10:37;100389.00;;;14.84;40.43
16613;BME280;8419;52.358;9.752;2023-01-30T03:13:36;100379.00;;;14.92;40.35
16613;BME280;8419;52.358;9.752;2023-01-30T03:16:29;100376.00;;;14.95;40.35
16613;BME280;8419;52.358;9.752;2023-01-30T03:19:18;100374.00;;;15.00;40.35
16613;BME280;8419;52.358;9.752;2023-01-30T03:22:05;100365.00;;;15.08;40.25
16613;BME280;8419;52.358;9.752;2023-01-30T03:24:52;100363.00;;;15.10;40.29
16613;BME280;8419;52.358;9.752;2023-01-30T03:27:39;100354.00;;;15.10;40.32
16613;BME280;8419;52.358;9.752;2023-01-30T03:30:25;100362.00;;;14.98;40.59
16613;BME280;8419;52.358;9.752;2023-01-30T03:33:10;100350.00;;;14.95;40.65
16613;BME280;8419;52.358;9.752;2023-01-30T03:35:56;100356.00;;;14.86;40.86
16613;BME280;8419;52.358;9.752;2023-01-30T03:38:42;100348.00;;;14.80;41.15
16613;BME280;8419;52.358;9.752;2023-01-30T03:41:27;100332.00;;;14.78;41.26
16613;BME280;8419;52.358;9.752;2023-01-30T03:44:13;100330.00;;;14.80;41.33
16613;BME280;8419;52.358;9.752;2023-01-30T03:46:58;100320.00;;;14.76;41.49
16613;BME280;8419;52.358;9.752;2023-01-30T03:49:44;100323.00;;;14.76;41.57
16613;BME280;8419;52.358;9.752;2023-01-30T03:52:29;100318.00;;;14.78;41.62
16613;BME280;8419;52.358;9.752;2023-01-30T03:55:15;100339.00;;;14.78;41.80
16613;BME280;8419;52.358;9.752;2023-01-30T03:58:01;100323.00;;;14.73;42.03
16613;BME280;8419;52.358;9.752;2023-01-30T04:00:46;100325.00;;;14.79;42.01
16613;BME280;8419;52.358;9.752;2023-01-30T04:03:33;100317.00;;;14.79;42.11
16613;BME280;8419;52.358;9.752;2023-01-30T04:06:18;100302.00;;;14.79;42.29
16613;BME280;8419;52.358;9.752;2023-01-30T04:09:04;100299.00;;;14.78;42.48
16613;BME280;8419;52.358;9.752;2023-01-30T04:11:49;100317.00;;;14.82;42.52
16613;BME280;8419;52.358;9.752;2023-01-30T04:14:35;100306.00;;;14.88;42.44
16613;BME280;8419;52.358;9.752;2023-01-30T04:17:20;100279.00;;;14.88;42.51
16613;BME280;8419;52.358;9.752;2023-01-30T04:20:10;100297.00;;;14.78;42.79
16613;BME280;8419;52.358;9.752;2023-01-30T04:22:55;100301.00;;;14.82;42.81
16613;BME280;8419;52.358;9.752;2023-01-30T04:25:44;100292.00;;;14.83;42.88
16613;BME280;8419;52.358;9.752;2023-01-30T04:28:30;100295.00;;;14.82;42.92
16613;BME280;8419;52.358;9.752;2023-01-30T04:31:15;100270.00;;;14.79;43.07
16613;BME280;8419;52.358;9.752;2023-01-30T04:34:01;100271.00;;;14.80;43.16
16613;BME280;8419;52.358;9.752;2023-01-30T04:36:47;100265.00;;;14.83;43.23
16613;BME280;8419;52.358;9.752;2023-01-30T04:39:32;100260.00;;;14.89;43.14
16613;BME280;8419;52.358;9.752;2023-01-30T04:42:17;100280.00;;;14.84;43.34
16613;BME280;8419;52.358;9.752;2023-01-30T04:45:07;100261.00;;;14.85;43.44
16613;BME280;8419;52.358;9.752;2023-01-30T04:47:53;100276.00;;;14.83;43.51
16613;BME280;8419;52.358;9.752;2023-01-30T04:50:39;100267.00;;;14.87;43.56
16613;BME280;8419;52.358;9.752;2023-01-30T04:53:26;100276.00;;;14.92;43.45
16613;BME280;8419;52.358;9.752;2023-01-30T04:56:11;100274.00;;;14.85;43.68
16613;BME280;8419;52.358;9.752;2023-01-30T04:58:56;100262.00;;;14.87;43.70
16613;BME280;8419;52.358;9.752;2023-01-30T05:01:42;100259.00;;;14.79;43.94
16613;BME280;8419;52.358;9.752;2023-01-30T05:04:27;100246.00;;;14.90;43.76
16613;BME280;8419;52.358;9.752;2023-01-30T05:07:13;100236.00;;;14.94;43.69
16613;BME280;8419;52.358;9.752;2023-01-30T05:10:01;100239.00;;;15.06;43.54
16613;BME280;8419;52.358;9.752;2023-01-30T05:12:47;100249.00;;;15.08;43.59
16613;BME280;8419;52.358;9.752;2023-01-30T05:15:32;100239.00;;;15.06;43.73
16613;BME280;8419;52.358;9.752;2023-01-30T05:18:18;100239.00;;;15.12;43.68
16613;BME280;8419;52.358;9.752;2023-01-30T05:21:07;100243.00;;;15.14;43.75
16613;BME280;8419;52.358;9.752;2023-01-30T05:23:53;100248.00;;;15.18;43.77
16613;BME280;8419;52.358;9.752;2023-01-30T05:26:40;100249.00;;;15.18;43.85
16613;BME280;8419;52.358;9.752;2023-01-30T05:29:25;100220.00;;;15.15;43.97
16613;BME280;8419;52.358;9.752;2023-01-30T05:32:12;100226.00;;;15.29;43.76
16613;BME280;8419;52.358;9.752;2023-01-30T05:34:58;100233.00;;;15.27;43.86
16613;BME280;8419;52.358;9.752;2023-01-30T05:37:48;100241.00;;;15.29;43.88
16613;BME280;8419;52.358;9.752;2023-01-30T05:40:34;100234.00;;;15.29;43.94
16613;BME280;8419;52.358;9.752;2023-01-30T05:43:20;100252.00;;;15.27;44.06
16613;BME280;8419;52.358;9.752;2023-01-30T05:46:06;100248.00;;;15.39;43.85
16613;BME280;8419;52.358;9.752;2023-01-30T05:48:51;100242.00;;;15.36;44.02
16613;BME280;8419;52.358;9.752;2023-01-30T05:51:37;100259.00;;;15.33;44.09
16613;BME280;8419;52.358;9.752;2023-01-30T05:54:23;100228.00;;;15.37;44.13
16613;BME280;8419;52.358;9.752;2023-01-30T05:57:08;100240.00;;;15.27;44.38
16613;BME280;8419;52.358;9.752;2023-01-30T05:59:58;100264.00;;;15.36;44.27
16613;BME280;8419;52.358;9.752;2023-01-30T06:02:45;100252.00;;;15.42;44.20
16613;BME280;8419;52.358;9.752;2023-01-30T06:05:31;100244.00;;;15.42;44.24
16613;BME280;8419;52.358;9.752;2023-01-30T06:08:17;100224.00;;;15.39;44.26
16613;BME280;8419;52.358;9.752;2023-01-30T06:11:03;100205.00;;;15.43;44.15
16613;BME280;8419;52.358;9.752;2023-01-30T06:13:49;100228.00;;;15.37;44.22
16613;BME280;8419;52.358;9.752;2023-01-30T06:16:35;100224.00;;;15.34;44.30
16613;BME280;8419;52.358;9.752;2023-01-30T06:19:21;100232.00;;;15.38;44.19
16613;BME280;8419;52.358;9.752;2023-01-30T06:22:06;100232.00;;;15.36;44.16
16613;BME280;8419;52.358;9.752;2023-01-30T06:24:51;100228.00;;;15.34;44.13
16613;BME280;8419;52.358;9.752;2023-01-30T06:27:37;100231.00;;;15.29;44.28
16613;BME280;8419;52.358;9.752;2023-01-30T06:30:22;100234.00;;;15.31;44.28
16613;BME280;8419;52.358;9.752;2023-01-30T06:33:09;100236.00;;;15.42;44.01
16613;BME280;8419;52.358;9.752;2023-01-30T06:35:55;100246.00;;;15.45;44.01
16613;BME280;8419;52.358;9.752;2023-01-30T06:38:40;100252.00;;;15.48;44.07
16613;BME280;8419;52.358;9.752;2023-01-30T06:41:28;100262.00;;;15.54;44.08
16613;BME280;8419;52.358;9.752;2023-01-30T06:44:16;100263.00;;;15.61;44.00
16613;BME280;8419;52.358;9.752;2023-01-30T06:47:02;100271.00;;;15.78;43.68
16613;BME280;8419;52.358;9.752;2023-01-30T06:49:47;100266.00;;;15.77;43.79
16613;BME280;8419;52.358;9.752;2023-01-30T06:52:33;100280.00;;;15.71;43.90
16613;BME280;8419;52.358;9.752;2023-01-30T06:55:21;100278.00;;;15.86;43.53
16613;BME280;8419;52.358;9.752;2023-01-30T06:58:09;100270.00;;;15.91;43.22
16613;BME280;8419;52.358;9.752;2023-01-30T07:00:56;100268.00;;;15.83;43.22
16613;BME280;8419;52.358;9.752;2023-01-30T07:03:41;100271.00;;;15.69;43.26
16613;BME280;8419;52.358;9.752;2023-01-30T07:06:28;100271.00;;;15.69;43.18
16613;BME280;8419;52.358;9.752;2023-01-30T07:09:15;100273.00;;;15.67;43.28
16613;BME280;8419;52.358;9.752;2023-01-30T07:12:01;100266.00;;;15.69;43.33
16613;BME280;8419;52.358;9.752;2023-01-30T07:14:46;100273.00;;;15.70;43.19
16613;BME280;8419;52.358;9.752;2023-01-30T07:17:31;100269.00;;;15.71;43.09
16613;BME280;8419;52.358;9.752;2023-01-30T07:20:18;100267.00;;;15.65;43.19
16613;BME280;8419;52.358;9.752;2023-01-30T07:23:04;100282.00;;;15.72;42.86
16613;BME280;8419;52.358;9.752;2023-01-30T07:25:49;100293.00;;;15.71;42.73
16613;BME280;8419;52.358;9.752;2023-01-30T07:28:35;100280.00;;;15.65;42.67
16613;BME280;8419;52.358;9.752;2023-01-30T07:31:20;100266.00;;;15.52;42.62
16613;BME280;8419;52.358;9.752;2023-01-30T07:34:09;100281.00;;;15.56;42.42
16613;BME280;8419;52.358;9.752;2023-01-30T07:37:01;100268.00;;;15.56;42.21
16613;BME280;8419;52.358;9.752;2023-01-30T07:39:47;100270.00;;;15.56;41.99
16613;BME280;8419;52.358;9.752;2023-01-30T07:42:32;100264.00;;;15.68;41.45
16613;BME280;8419;52.358;9.752;2023-01-30T07:45:18;100259.00;;;15.55;41.54
16613;BME280;8419;52.358;9.752;2023-01-30T07:48:05;100242.00;;;15.53;41.47
16613;BME280;8419;52.358;9.752;2023-01-30T07:50:55;100245.00;;;15.57;41.33
16613;BME280;8419;52.358;9.752;2023-01-30T07:53:41;100267.00;;;15.54;41.22
16613;BME280;8419;52.358;9.752;2023-01-30T07:56:27;100246.00;;;15.52;40.87
16613;BME280;8419;52.358;9.752;2023-01-30T07:59:13;100258.00;;;15.61;40.46
16613;BME280;8419;52.358;9.752;2023-01-30T08:01:58;100259.00;;;15.65;40.06
16613;BME280;8419;52.358;9.752;2023-01-30T08:04:44;100259.00;;;15.59;40.10
16613;BME280;8419;52.358;9.752;2023-01-30T08:07:29;100266.00;;;15.72;39.80
16613;BME280;8419;52.358;9.752;2023-01-30T08:10:17;100267.00;;;15.79;39.72
16613;BME280;8419;52.358;9.752;2023-01-30T08:13:03;100284.00;;;15.83;39.51
16613;BME280;8419;52.358;9.752;2023-01-30T08:15:48;100273.00;;;15.89;39.34
16613;BME280;8419;52.358;9.752;2023-01-30T08:18:35;100273.00;;;16.00;39.04
16613;BME280;8419;52.358;9.752;2023-01-30T08:21:20;100291.00;;;16.19;38.77
16613;BME280;8419;52.358;9.752;2023-01-30T08:24:07;100306.00;;;16.30;38.68
16613;BME280;8419;52.358;9.752;2023-01-30T08:26:52;100306.00;;;16.36;38.38
16613;BME280;8419;52.358;9.752;2023-01-30T08:29:38;100301.00;;;16.38;38.25
16613;BME280;8419;52.358;9.752;2023-01-30T08:32:24;100306.00;;;16.28;38.26
16613;BME280;8419;52.358;9.752;2023-01-30T08:35:10;100308.00;;;16.34;38.15
16613;BME280;8419;52.358;9.752;2023-01-30T08:37:55;100308.00;;;16.33;38.07
16613;BME280;8419;52.358;9.752;2023-01-30T08:40:41;100298.00;;;16.43;37.97
16613;BME280;8419;52.358;9.752;2023-01-30T08:43:27;100297.00;;;16.45;37.81
16613;BME280;8419;52.358;9.752;2023-01-30T08:46:12;100314.00;;;16.52;37.65
16613;BME280;8419;52.358;9.752;2023-01-30T08:48:58;100305.00;;;16.47;37.80
16613;BME280;8419;52.358;9.752;2023-01-30T08:51:48;100306.00;;;16.60;37.54
16613;BME280;8419;52.358;9.752;2023-01-30T08:54:33;100302.00;;;16.57;37.35
16613;BME280;8419;52.358;9.752;2023-01-30T08:57:19;100293.00;;;16.52;37.45
16613;BME280;8419;52.358;9.752;2023-01-30T09:00:10;100303.00;;;16.58;37.27
16613;BME280;8419;52.358;9.752;2023-01-30T09:02:57;100312.00;;;16.57;37.14
16613;BME280;8419;52.358;9.752;2023-01-30T09:05:45;100318.00;;;16.70;36.97
16613;BME280;8419;52.358;9.752;2023-01-30T09:08:30;100304.00;;;16.72;36.98
16613;BME280;8419;52.358;9.752;2023-01-30T09:11:16;100303.00;;;16.68;36.89
16613;BME280;8419;52.358;9.752;2023-01-30T09:14:02;100308.00;;;16.68;36.80
16613;BME280;8419;52.358;9.752;2023-01-30T09:16:49;100297.00;;;16.71;36.58
16613;BME280;8419;52.358;9.752;2023-01-30T09:19:39;100315.00;;;16.64;36.68
16613;BME280;8419;52.358;9.752;2023-01-30T09:22:25;100321.00;;;16.74;36.28
16613;BME280;8419;52.358;9.752;2023-01-30T09:25:12;100323.00;;;16.75;36.18
16613;BME280;8419;52.358;9.752;2023-01-30T09:27:57;100308.00;;;16.88;36.01
16613;BME280;8419;52.358;9.752;2023-01-30T09:30:44;100305.00;;;16.71;36.12
16613;BME280;8419;52.358;9.752;2023-01-30T09:33:29;100311.00;;;16.79;35.98
16613;BME280;8419;52.358;9.752;2023-01-30T09:36:15;100312.00;;;16.78;36.07
16613;BME280;8419;52.358;9.752;2023-01-30T09:39:03;100300.00;;;16.88;36.08
16613;BME280;8419;52.358;9.752;2023-01-30T09:42:00;100305.00;;;17.01;35.89
16613;BME280;8419;52.358;9.752;2023-01-30T09:45:31;100303.00;;;17.06;35.51
16613;BME280;8419;52.358;9.752;2023-01-30T09:48:26;100324.00;;;17.06;35.37
16613;BME280;8419;52.358;9.752;2023-01-30T09:54:44;100310.00;;;17.15;35.25
16613;BME280;8419;52.358;9.752;2023-01-30T09:57:30;100316.00;;;16.98;35.06
16613;BME280;8419;52.358;9.752;2023-01-30T10:00:21;100315.00;;;17.07;34.88
16613;BME280;8419;52.358;9.752;2023-01-30T10:03:11;100320.00;;;17.13;34.62
16613;BME280;8419;52.358;9.752;2023-01-30T10:06:01;100310.00;;;17.06;34.79
16613;BME280;8419;52.358;9.752;2023-01-30T10:08:52;100289.00;;;16.99;34.84
16613;BME280;8419;52.358;9.752;2023-01-30T10:11:51;100300.00;;;16.98;34.90
16613;BME280;8419;52.358;9.752;2023-01-30T10:14:50;100310.00;;;17.20;34.63
16613;BME280;8419;52.358;9.752;2023-01-30T10:17:50;100302.00;;;17.31;34.34
16613;BME280;8419;52.358;9.752;2023-01-30T10:20:44;100295.00;;;17.29;34.30
16613;BME280;8419;52.358;9.752;2023-01-30T10:23:47;100321.00;;;17.53;34.16
16613;BME280;8419;52.358;9.752;2023-01-30T10:26:39;100307.00;;;17.56;34.03
16613;BME280;8419;52.358;9.752;2023-01-30T10:29:29;100315.00;;;17.64;33.56
16613;BME280;8419;52.358;9.752;2023-01-30T10:32:24;100295.00;;;17.62;33.49
16613;BME280;8419;52.358;9.752;2023-01-30T10:35:18;100316.00;;;17.43;33.76
16613;BME280;8419;52.358;9.752;2023-01-30T10:38:12;100287.00;;;17.38;33.61
16613;BME280;8419;52.358;9.752;2023-01-30T10:41:06;100282.00;;;17.26;33.91
16613;BME280;8419;52.358;9.752;2023-01-30T10:43:58;100276.00;;;17.22;34.10
16613;BME280;8419;52.358;9.752;2023-01-30T10:47:01;100273.00;;;17.39;33.93
16613;BME280;8419;52.358;9.752;2023-01-30T10:49:53;100278.00;;;17.44;33.83
16613;BME280;8419;52.358;9.752;2023-01-30T10:52:43;100248.00;;;17.44;33.74
16613;BME280;8419;52.358;9.752;2023-01-30T10:55:36;100267.00;;;17.36;33.94
16613;BME280;8419;52.358;9.752;2023-01-30T10:58:30;100250.00;;;17.38;33.84
16613;BME280;8419;52.358;9.752;2023-01-30T11:01:22;100253.00;;;17.37;33.81
16613;BME280;8419;52.358;9.752;2023-01-30T11:04:16;100272.00;;;17.58;33.52
16613;BME280;8419;52.358;9.752;2023-01-30T11:07:05;100287.00;;;17.78;33.01
16613;BME280;8419;52.358;9.752;2023-01-30T11:09:51;100281.00;;;17.54;33.73
16613;BME280;8419;52.358;9.752;2023-01-30T11:12:38;100292.00;;;17.18;34.45
16613;BME280;8419;52.358;9.752;2023-01-30T11:15:24;100287.00;;;17.14;34.71
16613;BME280;8419;52.358;9.752;2023-01-30T11:18:09;100295.00;;;17.14;34.79
16613;BME280;8419;52.358;9.752;2023-01-30T11:21:04;100277.00;;;17.30;34.74
16613;BME280;8419;52.358;9.752;2023-01-30T11:23:51;100309.00;;;17.27;34.73
16613;BME280;8419;52.358;9.752;2023-01-30T11:26:38;100273.00;;;16.98;35.03
16613;BME280;8419;52.358;9.752;2023-01-30T11:29:28;100254.00;;;16.42;36.48
16613;BME280;8419;52.358;9.752;2023-01-30T11:32:21;100252.00;;;15.93;37.78
16613;BME280;8419;52.358;9.752;2023-01-30T11:35:27;100272.00;;;15.65;38.70
16613;BME280;8419;52.358;9.752;2023-01-30T11:38:21;100244.00;;;15.75;39.03
16613;BME280;8419;52.358;9.752;2023-01-30T11:41:18;100245.00;;;15.73;39.53
16613;BME280;8419;52.358;9.752;2023-01-30T11:44:09;100251.00;;;15.91;39.78
16613;BME280;8419;52.358;9.752;2023-01-30T11:46:58;100249.00;;;16.15;39.38
16613;BME280;8419;52.358;9.752;2023-01-30T11:49:47;100248.00;;;16.17;39.32
16613;BME280;8419;52.358;9.752;2023-01-30T11:52:37;100233.00;;;16.23;39.54
16613;BME280;8419;52.358;9.752;2023-01-30T11:55:26;100219.00;;;16.46;39.28
16613;BME280;8419;52.358;9.752;2023-01-30T11:58:14;100236.00;;;16.56;38.96
16613;BME280;8419;52.358;9.752;2023-01-30T12:01:00;100250.00;;;16.58;38.48
16613;BME280;8419;52.358;9.752;2023-01-30T12:03:49;100256.00;;;16.27;38.94
16613;BME280;8419;52.358;9.752;2023-01-30T12:06:39;100247.00;;;15.97;39.38
16613;BME280;8419;52.358;9.752;2023-01-30T12:09:31;100265.00;;;15.69;39.87
16613;BME280;8419;52.358;9.752;2023-01-30T12:12:29;100246.00;;;15.55;40.44
16613;BME280;8419;52.358;9.752;2023-01-30T12:15:20;100271.00;;;15.44;40.77
16613;BME280;8419;52.358;9.752;2023-01-30T12:18:13;100279.00;;;15.25;41.12
16613;BME280;8419;52.358;9.752;2023-01-30T12:21:02;100272.00;;;14.99;41.18
16613;BME280;8419;52.358;9.752;2023-01-30T12:23:58;100273.00;;;14.88;41.38
16613;BME280;8419;52.358;9.752;2023-01-30T12:26:46;100278.00;;;14.78;41.48
16613;BME280;8419;52.358;9.752;2023-01-30T12:29:37;100284.00;;;14.80;41.84
16613;BME280;8419;52.358;9.752;2023-01-30T12:32:27;100266.00;;;14.74;42.20
16613;BME280;8419;52.358;9.752;2023-01-30T12:35:16;100241.00;;;14.78;42.35
16613;BME280;8419;52.358;9.752;2023-01-30T12:38:08;100250.00;;;14.74;42.62
16613;BME280;8419;52.358;9.752;2023-01-30T12:41:09;100280.00;;;14.76;42.76
16613;BME280;8419;52.358;9.752;2023-01-30T12:44:25;100256.00;;;14.76;42.99
16613;BME280;8419;52.358;9.752;2023-01-30T12:47:25;100258.00;;;14.74;43.02
16613;BME280;8419;52.358;9.752;2023-01-30T12:50:26;100283.00;;;14.62;42.83
16613;BME280;8419;52.358;9.752;2023-01-30T12:53:35;100289.00;;;14.50;43.17
16613;BME280;8419;52.358;9.752;2023-01-30T13:00:32;100293.00;;;14.88;43.39
16613;BME280;8419;52.358;9.752;2023-01-30T13:03:32;100287.00;;;14.77;43.09
16613;BME280;8419;52.358;9.752;2023-01-30T13:06:34;100289.00;;;14.50;43.37
16613;BME280;8419;52.358;9.752;2023-01-30T13:09:43;100291.00;;;14.73;43.69
16613;BME280;8419;52.358;9.752;2023-01-30T13:12:39;100304.00;;;15.24;42.98
16613;BME280;8419;52.358;9.752;2023-01-30T13:15:33;100297.00;;;15.13;42.88
16613;BME280;8419;52.358;9.752;2023-01-30T13:18:25;100315.00;;;15.13;43.63
16613;BME280;8419;52.358;9.752;2023-01-30T13:21:21;100288.00;;;15.22;43.47
16613;BME280;8419;52.358;9.752;2023-01-30T13:24:20;100290.00;;;15.61;43.06
16613;BME280;8419;52.358;9.752;2023-01-30T13:27:12;100305.00;;;15.78;42.70
16613;BME280;8419;52.358;9.752;2023-01-30T13:30:02;100292.00;;;15.88;42.69
16613;BME280;8419;52.358;9.752;2023-01-30T13:32:52;100291.00;;;15.86;42.54
16613;BME280;8419;52.358;9.752;2023-01-30T13:35:45;100282.00;;;16.27;42.04
16613;BME280;8419;52.358;9.752;2023-01-30T13:38:34;100275.00;;;16.43;41.62
16613;BME280;8419;52.358;9.752;2023-01-30T13:41:24;100267.00;;;16.80;41.20
16613;BME280;8419;52.358;9.752;2023-01-30T13:44:17;100298.00;;;16.74;40.29
16613;BME280;8419;52.358;9.752;2023-01-30T13:47:23;100268.00;;;16.53;40.47
16613;BME280;8419;52.358;9.752;2023-01-30T13:50:42;100281.00;;;16.63;40.54
16613;BME280;8419;52.358;9.752;2023-01-30T13:53:36;100299.00;;;16.75;40.00
16613;BME280;8419;52.358;9.752;2023-01-30T13:56:36;100275.00;;;16.49;40.47
16613;BME280;8419;52.358;9.752;2023-01-30T13:59:45;100293.00;;;16.55;40.47
16613;BME280;8419;52.358;9.752;2023-01-30T14:02:34;100283.00;;;16.66;39.80
16613;BME280;8419;52.358;9.752;2023-01-30T14:06:02;100304.00;;;16.70;39.41
16613;BME280;8419;52.358;9.752;2023-01-30T14:08:55;100294.00;;;16.66;38.98
16613;BME280;8419;52.358;9.752;2023-01-30T14:11:47;100345.00;;;16.56;39.08
16613;BME280;8419;52.358;9.752;2023-01-30T14:14:35;100348.00;;;16.49;38.86
16613;BME280;8419;52.358;9.752;2023-01-30T14:17:23;100366.00;;;16.16;39.32
16613;BME280;8419;52.358;9.752;2023-01-30T14:20:16;100350.00;;;15.94;40.20
16613;BME280;8419;52.358;9.752;2023-01-30T14:23:13;100382.00;;;15.88;40.06
16613;BME280;8419;52.358;9.752;2023-01-30T14:26:04;100394.00;;;15.66;40.37
16613;BME280;8419;52.358;9.752;2023-01-30T14:28:49;100413.00;;;15.65;40.67
16613;BME280;8419;52.358;9.752;2023-01-30T14:31:54;100411.00;;;15.84;40.14
16613;BME280;8419;52.358;9.752;2023-01-30T14:34:41;100425.00;;;15.72;40.33
16613;BME280;8419;52.358;9.752;2023-01-30T14:41:16;100453.00;;;15.49;40.72
16613;BME280;8419;52.358;9.752;2023-01-30T14:44:08;100442.00;;;15.52;40.73
16613;BME280;8419;52.358;9.752;2023-01-30T14:46:54;100461.00;;;15.43;41.00
16613;BME280;8419;52.358;9.752;2023-01-30T14:49:43;100480.00;;;15.45;41.00
16613;BME280;8419;52.358;9.752;2023-01-30T14:52:37;100468.00;;;15.40;41.04
16613;BME280;8419;52.358;9.752;2023-01-30T14:55:25;100471.00;;;15.49;40.98
16613;BME280;8419;52.358;9.752;2023-01-30T14:58:16;100489.00;;;15.67;40.81
16613;BME280;8419;52.358;9.752;2023-01-30T15:01:03;100484.00;;;15.82;40.55
16613;BME280;8419;52.358;9.752;2023-01-30T15:03:50;100457.00;;;15.85;40.27
16613;BME280;8419;52.358;9.752;2023-01-30T15:06:36;100488.00;;;15.90;40.04
16613;BME280;8419;52.358;9.752;2023-01-30T15:09:25;100488.00;;;15.89;40.33
16613;BME280;8419;52.358;9.752;2023-01-30T15:15:37;100484.00;;;15.72;40.64